createdAt,value
2017-06-26T00:00:20.084Z,0
2017-06-26T00:01:35.774Z,0
2017-06-26T00:02:51.326Z,0
2017-06-26T00:04:06.723Z,0
2017-06-26T00:05:22.150Z,0
2017-06-26T00:06:37.827Z,0
2017-06-26T00:07:53.243Z,0
2017-06-26T00:09:08.675Z,0
2017-06-26T00:10:24.102Z,0
2017-06-26T00:11:38.649Z,0
2017-06-26T00:12:54.328Z,0
2017-06-26T00:14:09.924Z,0
2017-06-26T00:15:25.487Z,0
2017-06-26T00:16:41.172Z,0
2017-06-26T00:17:56.599Z,0
2017-06-26T00:19:12.036Z,0
2017-06-26T00:20:27.430Z,0
2017-06-26T00:21:43.082Z,0
2017-06-26T00:22:57.136Z,0
2017-06-26T00:24:12.584Z,0
2017-06-26T00:25:28.131Z,0
2017-06-26T00:26:43.807Z,0
2017-06-26T00:27:57.727Z,0
2017-06-26T00:29:13.365Z,0
2017-06-26T00:30:28.738Z,0
2017-06-26T00:31:44.513Z,0
2017-06-26T00:32:58.656Z,0
2017-06-26T00:34:12.756Z,0
2017-06-26T00:35:28.158Z,0
2017-06-26T00:36:42.516Z,0
2017-06-26T00:37:57.925Z,0
2017-06-26T00:39:13.364Z,0
2017-06-26T00:40:28.826Z,0
2017-06-26T00:41:44.478Z,0
2017-06-26T00:42:59.852Z,0
2017-06-26T00:44:15.294Z,0
2017-06-26T00:45:30.690Z,0
2017-06-26T00:46:46.387Z,0
2017-06-26T00:48:01.834Z,0
2017-06-26T00:49:17.267Z,0
2017-06-26T00:50:32.719Z,0
2017-06-26T00:51:48.268Z,0
2017-06-26T00:53:03.681Z,0
2017-06-26T00:54:19.267Z,0
2017-06-26T00:55:34.635Z,0
2017-06-26T00:56:50.018Z,0
2017-06-26T00:58:05.420Z,0
2017-06-26T00:59:20.818Z,0
2017-06-26T01:00:34.899Z,0
2017-06-26T01:01:50.513Z,0
2017-06-26T01:03:04.615Z,0
2017-06-26T01:04:20.057Z,0
2017-06-26T01:05:35.434Z,0
2017-06-26T01:06:48.488Z,0
2017-06-26T01:08:03.910Z,0
2017-06-26T01:09:19.365Z,0
2017-06-26T01:10:34.986Z,0
2017-06-26T01:11:50.653Z,0
2017-06-26T01:13:04.838Z,0
2017-06-26T01:14:20.262Z,0
2017-06-26T01:15:34.497Z,0
2017-06-26T01:16:50.225Z,0
2017-06-26T01:18:05.618Z,0
2017-06-26T01:19:21.133Z,0
2017-06-26T01:20:35.305Z,0
2017-06-26T01:21:50.977Z,0
2017-06-26T01:23:06.403Z,0
2017-06-26T01:24:21.811Z,0
2017-06-26T01:25:35.963Z,0
2017-06-26T01:26:51.797Z,0
2017-06-26T01:28:07.188Z,0
2017-06-26T01:29:22.584Z,0
2017-06-26T01:30:38.188Z,0
2017-06-26T01:31:53.832Z,0
2017-06-26T01:33:09.442Z,0
2017-06-26T01:34:24.882Z,0
2017-06-26T01:35:40.498Z,0
2017-06-26T01:36:56.178Z,0
2017-06-26T01:38:10.203Z,0
2017-06-26T01:39:24.350Z,0
2017-06-26T01:40:39.818Z,0
2017-06-26T01:41:54.795Z,0
2017-06-26T01:43:10.463Z,0
2017-06-26T01:44:26.042Z,0
2017-06-26T01:45:41.397Z,0
2017-06-26T01:46:56.821Z,0
2017-06-26T01:48:12.550Z,0
2017-06-26T01:49:27.941Z,0
2017-06-26T01:50:40.656Z,0
2017-06-26T01:51:56.056Z,0
2017-06-26T01:53:11.791Z,0
2017-06-26T01:54:27.214Z,0
2017-06-26T01:55:42.605Z,0
2017-06-26T01:56:58.207Z,0
2017-06-26T01:58:13.885Z,0
2017-06-26T01:59:29.314Z,0
2017-06-26T02:00:44.956Z,0
2017-06-26T02:02:00.166Z,0
2017-06-26T02:03:15.864Z,0
2017-06-26T02:04:31.316Z,0
2017-06-26T02:05:46.727Z,0
2017-06-26T02:07:02.139Z,0
2017-06-26T02:08:17.874Z,0
2017-06-26T02:09:33.243Z,0
2017-06-26T02:10:48.642Z,0
2017-06-26T02:12:04.095Z,0
2017-06-26T02:13:18.465Z,0
2017-06-26T02:14:33.870Z,0
2017-06-26T02:15:49.479Z,4
2017-06-26T02:17:05.044Z,4
2017-06-26T02:18:19.389Z,0
2017-06-26T02:19:33.363Z,4
2017-06-26T02:20:47.469Z,4
2017-06-26T02:22:03.094Z,4
2017-06-26T02:23:18.787Z,4
2017-06-26T02:24:32.773Z,4
2017-06-26T02:25:47.039Z,4
2017-06-26T02:27:02.510Z,4
2017-06-26T02:28:15.422Z,4
2017-06-26T02:29:30.780Z,4
2017-06-26T02:30:46.207Z,4
2017-06-26T02:32:01.586Z,8
2017-06-26T02:33:17.497Z,4
2017-06-26T02:34:32.905Z,8
2017-06-26T02:35:48.320Z,8
2017-06-26T02:37:03.963Z,12
2017-06-26T02:38:19.582Z,20
2017-06-26T02:39:35.027Z,24
2017-06-26T02:40:50.440Z,32
2017-06-26T02:42:19.420Z,36
2017-06-26T02:43:32.509Z,44
2017-06-26T02:44:47.933Z,44
2017-06-26T02:46:03.512Z,48
2017-06-26T02:47:19.075Z,52
2017-06-26T02:48:34.762Z,56
2017-06-26T02:49:50.167Z,60
2017-06-26T02:51:05.720Z,64
2017-06-26T02:52:21.089Z,64
2017-06-26T02:53:36.751Z,56
2017-06-26T02:54:52.191Z,52
2017-06-26T02:56:07.596Z,48
2017-06-26T02:57:21.674Z,44
2017-06-26T02:58:37.351Z,48
2017-06-26T02:59:52.770Z,48
2017-06-26T03:01:08.329Z,56
2017-06-26T03:02:23.729Z,64
2017-06-26T03:03:37.961Z,60
2017-06-26T03:04:53.569Z,64
2017-06-26T03:06:08.999Z,76
2017-06-26T03:07:24.418Z,88
2017-06-26T03:08:40.122Z,96
2017-06-26T03:09:55.548Z,96
2017-06-26T03:11:10.966Z,112
2017-06-26T03:12:24.981Z,124
2017-06-26T03:13:40.653Z,128
2017-06-26T03:14:55.694Z,132
2017-06-26T03:16:11.280Z,152
2017-06-26T03:17:26.686Z,176
2017-06-26T03:18:42.316Z,180
2017-06-26T03:19:57.821Z,216
2017-06-26T03:21:13.251Z,260
2017-06-26T03:22:28.679Z,284
2017-06-26T03:23:44.505Z,316
2017-06-26T03:24:59.944Z,332
2017-06-26T03:26:15.352Z,352
2017-06-26T03:27:30.737Z,360
2017-06-26T03:28:46.622Z,436
2017-06-26T03:30:02.044Z,492
2017-06-26T03:31:14.726Z,492
2017-06-26T03:32:30.115Z,508
2017-06-26T03:33:45.740Z,540
2017-06-26T03:35:01.124Z,548
2017-06-26T03:36:14.835Z,624
2017-06-26T03:37:30.329Z,812
2017-06-26T03:38:45.963Z,928
2017-06-26T03:40:01.381Z,1012
2017-06-26T03:41:16.752Z,1028
2017-06-26T03:42:30.901Z,1044
2017-06-26T03:43:45.266Z,1068
2017-06-26T03:45:00.728Z,1036
2017-06-26T03:46:16.115Z,972
2017-06-26T03:47:31.546Z,1032
2017-06-26T03:48:47.156Z,1188
2017-06-26T03:50:02.584Z,1328
2017-06-26T03:51:18.127Z,1412
2017-06-26T03:52:33.540Z,1504
2017-06-26T03:53:49.178Z,1580
2017-06-26T03:55:04.790Z,1644
2017-06-26T03:56:20.181Z,1720
2017-06-26T03:57:35.594Z,1752
2017-06-26T03:58:51.717Z,1736
2017-06-26T04:00:07.126Z,1668
2017-06-26T04:01:22.540Z,1572
2017-06-26T04:02:36.524Z,1464
2017-06-26T04:03:52.376Z,1440
2017-06-26T04:05:06.486Z,1504
2017-06-26T04:06:21.852Z,1412
2017-06-26T04:07:35.935Z,1288
2017-06-26T04:08:50.299Z,1200
2017-06-26T04:10:04.396Z,1124
2017-06-26T04:11:19.961Z,1112
2017-06-26T04:13:06.104Z,1096
2017-06-26T04:14:35.320Z,1116
2017-06-26T04:15:49.445Z,1144
2017-06-26T04:17:04.862Z,1220
2017-06-26T04:18:20.316Z,1276
2017-06-26T04:19:34.657Z,1328
2017-06-26T04:20:48.766Z,1336
2017-06-26T04:22:04.194Z,1332
2017-06-26T04:23:19.794Z,1380
2017-06-26T04:24:35.466Z,1488
2017-06-26T04:25:51.069Z,1524
2017-06-26T04:27:06.504Z,1416
2017-06-26T04:28:22.050Z,1368
2017-06-26T04:29:37.731Z,1352
2017-06-26T04:30:53.161Z,1372
2017-06-26T04:32:08.762Z,1544
2017-06-26T04:33:24.205Z,1596
2017-06-26T04:35:10.777Z,1588
2017-06-26T04:36:26.129Z,1568
2017-06-26T04:37:41.909Z,1504
2017-06-26T04:38:57.352Z,1720
2017-06-26T04:40:13.107Z,1892
2017-06-26T04:41:28.497Z,2008
2017-06-26T04:42:44.084Z,2088
2017-06-26T04:43:59.523Z,2112
2017-06-26T04:45:15.161Z,1720
2017-06-26T04:46:30.578Z,1540
2017-06-26T04:47:45.990Z,1444
2017-06-26T04:49:01.390Z,1508
2017-06-26T04:50:17.017Z,1832
2017-06-26T04:51:32.419Z,2076
2017-06-26T04:52:46.518Z,2328
2017-06-26T04:54:02.044Z,2576
2017-06-26T04:55:17.720Z,2528
2017-06-26T04:56:31.819Z,2424
2017-06-26T04:57:46.853Z,2456
2017-06-26T05:00:31.505Z,3008
2017-06-26T05:01:46.872Z,2944
2017-06-26T05:03:02.471Z,2708
2017-06-26T05:04:17.883Z,2492
2017-06-26T05:05:33.560Z,2312
2017-06-26T05:06:47.671Z,2224
2017-06-26T05:08:03.075Z,2352
2017-06-26T05:09:18.592Z,2324
2017-06-26T05:10:34.257Z,2040
2017-06-26T05:11:49.676Z,1808
2017-06-26T05:13:05.251Z,1432
2017-06-26T05:14:19.239Z,1100
2017-06-26T05:15:48.521Z,1024
2017-06-26T05:17:03.979Z,1144
2017-06-26T05:18:19.398Z,1368
2017-06-26T05:19:34.787Z,2224
2017-06-26T05:20:50.462Z,1728
2017-06-26T05:22:05.892Z,628
2017-06-26T05:23:21.291Z,440
2017-06-26T05:24:36.743Z,640
2017-06-26T05:25:52.403Z,788
2017-06-26T05:27:07.767Z,1092
2017-06-26T05:28:21.880Z,1304
2017-06-26T05:29:37.265Z,1272
2017-06-26T05:30:52.905Z,1444
2017-06-26T05:32:08.310Z,1504
2017-06-26T05:33:23.796Z,1344
2017-06-26T05:34:39.212Z,1308
2017-06-26T05:35:54.898Z,1276
2017-06-26T05:37:10.346Z,1264
2017-06-26T05:38:25.739Z,1192
2017-06-26T05:39:39.836Z,1172
2017-06-26T05:40:55.522Z,1136
2017-06-26T05:42:11.389Z,996
2017-06-26T05:43:26.804Z,1316
2017-06-26T05:44:42.215Z,1760
2017-06-26T05:45:57.869Z,2012
2017-06-26T05:47:13.317Z,2024
2017-06-26T05:48:27.282Z,1916
2017-06-26T05:49:42.648Z,2192
2017-06-26T05:50:57.907Z,2420
2017-06-26T05:52:13.525Z,2508
2017-06-26T05:53:28.951Z,2980
2017-06-26T05:54:44.357Z,3204
2017-06-26T05:56:00.230Z,3204
2017-06-26T05:57:15.623Z,3436
2017-06-26T05:58:31.041Z,4136
2017-06-26T05:59:44.762Z,4160
2017-06-26T06:01:00.623Z,3584
2017-06-26T06:02:16.263Z,3156
2017-06-26T06:03:31.661Z,3336
2017-06-26T06:04:47.068Z,4196
2017-06-26T06:06:01.286Z,4500
2017-06-26T06:07:16.894Z,3948
2017-06-26T06:08:32.301Z,3796
2017-06-26T06:09:46.446Z,4128
2017-06-26T06:11:02.129Z,4364
2017-06-26T06:12:17.556Z,4720
2017-06-26T06:13:33.196Z,4928
2017-06-26T06:14:48.584Z,4204
2017-06-26T06:16:04.299Z,4324
2017-06-26T06:17:19.718Z,5356
2017-06-26T06:18:34.752Z,5884
2017-06-26T06:19:50.178Z,7180
2017-06-26T06:21:05.835Z,8520
2017-06-26T06:22:21.278Z,9048
2017-06-26T06:23:36.715Z,9456
2017-06-26T06:24:52.146Z,9740
2017-06-26T06:26:07.755Z,10296
2017-06-26T06:27:23.148Z,9332
2017-06-26T06:28:38.534Z,7888
2017-06-26T06:29:53.953Z,7660
2017-06-26T06:31:09.606Z,8136
2017-06-26T06:32:24.985Z,9156
2017-06-26T06:33:40.537Z,10288
2017-06-26T06:34:55.950Z,11184
2017-06-26T06:36:11.590Z,11824
2017-06-26T06:37:27.065Z,10824
2017-06-26T06:38:40.771Z,9928
2017-06-26T06:39:56.192Z,10264
2017-06-26T06:41:11.839Z,10316
2017-06-26T06:42:27.185Z,10840
2017-06-26T06:43:39.659Z,11656
2017-06-26T06:44:55.216Z,12112
2017-06-26T06:46:10.873Z,13864
2017-06-26T06:47:26.247Z,14236
2017-06-26T06:48:41.477Z,10504
2017-06-26T06:49:57.157Z,8848
2017-06-26T06:51:12.873Z,9140
2017-06-26T06:52:26.909Z,10144
2017-06-26T06:53:39.559Z,12708
2017-06-26T06:54:54.969Z,14196
2017-06-26T06:56:10.681Z,13492
2017-06-26T06:57:26.162Z,12292
2017-06-26T06:58:41.614Z,11552
2017-06-26T06:59:57.056Z,12104
2017-06-26T07:01:11.399Z,13584
2017-06-26T07:02:26.813Z,13796
2017-06-26T07:03:42.249Z,14844
2017-06-26T07:04:57.686Z,16064
2017-06-26T07:06:12.999Z,16960
2017-06-26T07:07:28.437Z,16384
2017-06-26T07:08:43.883Z,13392
2017-06-26T07:09:59.271Z,13380
2017-06-26T07:11:13.640Z,14140
2017-06-26T07:12:28.747Z,15040
2017-06-26T07:13:43.875Z,16704
2017-06-26T07:14:59.496Z,14944
2017-06-26T07:16:15.311Z,13768
2017-06-26T07:17:30.779Z,13632
2017-06-26T07:18:46.511Z,14204
2017-06-26T07:20:02.101Z,17216
2017-06-26T07:21:17.831Z,19168
2017-06-26T07:22:33.234Z,19008
2017-06-26T07:23:48.628Z,17952
2017-06-26T07:25:04.211Z,18176
2017-06-26T07:26:19.853Z,17888
2017-06-26T07:27:35.480Z,16608
2017-06-26T07:28:50.957Z,14276
2017-06-26T07:30:06.412Z,15436
2017-06-26T07:31:22.093Z,18912
2017-06-26T07:32:37.369Z,18752
2017-06-26T07:33:52.795Z,16032
2017-06-26T07:35:08.685Z,14244
2017-06-26T07:36:24.420Z,16704
2017-06-26T07:37:39.957Z,17408
2017-06-26T07:39:07.650Z,18976
2017-06-26T07:40:23.095Z,18368
2017-06-26T07:41:38.775Z,14356
2017-06-26T07:42:54.345Z,14176
2017-06-26T07:44:09.815Z,16320
2017-06-26T07:45:24.928Z,16512
2017-06-26T07:46:39.375Z,18176
2017-06-26T07:47:54.753Z,20096
2017-06-26T07:49:10.189Z,18464
2017-06-26T07:50:25.624Z,19488
2017-06-26T07:51:39.918Z,19584
2017-06-26T07:52:55.405Z,21248
2017-06-26T07:54:10.856Z,18592
2017-06-26T07:55:24.995Z,19968
2017-06-26T07:56:40.843Z,22112
2017-06-26T07:57:54.840Z,22272
2017-06-26T07:59:10.351Z,23680
2017-06-26T08:00:25.929Z,21728
2017-06-26T08:01:41.656Z,17856
2017-06-26T08:02:57.202Z,17056
2017-06-26T08:04:11.582Z,16064
2017-06-26T08:05:27.199Z,16992
2017-06-26T08:06:42.885Z,23136
2017-06-26T08:07:58.492Z,22016
2017-06-26T08:09:14.163Z,20896
2017-06-26T08:10:29.648Z,21664
2017-06-26T08:11:45.341Z,25120
2017-06-26T08:12:56.701Z,24416
2017-06-26T08:14:11.732Z,23520
2017-06-26T08:15:27.189Z,23392
2017-06-26T08:16:41.590Z,23648
2017-06-26T08:17:57.157Z,26848
2017-06-26T08:19:12.653Z,31648
2017-06-26T08:20:28.116Z,25408
2017-06-26T08:21:41.012Z,25056
2017-06-26T08:22:56.709Z,27008
2017-06-26T08:24:12.176Z,23776
2017-06-26T08:25:27.563Z,25696
2017-06-26T08:26:43.030Z,26752
2017-06-26T08:27:58.925Z,26112
2017-06-26T08:29:14.385Z,24736
2017-06-26T08:30:29.841Z,25376
2017-06-26T08:31:45.447Z,22208
2017-06-26T08:33:01.159Z,19424
2017-06-26T08:34:16.623Z,20096
2017-06-26T08:35:32.129Z,24128
2017-06-26T08:36:47.636Z,23616
2017-06-26T08:38:01.922Z,22848
2017-06-26T08:39:17.400Z,23232
2017-06-26T08:40:32.826Z,25440
2017-06-26T08:41:46.837Z,27712
2017-06-26T08:43:01.225Z,26912
2017-06-26T08:44:16.639Z,37472
2017-06-26T08:45:30.933Z,34592
2017-06-26T08:46:45.103Z,61728
2017-06-26T08:48:00.749Z,40928
2017-06-26T08:49:16.227Z,55424
2017-06-26T08:50:31.694Z,86592
2017-06-26T08:51:47.140Z,41248
2017-06-26T08:53:02.834Z,23936
2017-06-26T08:54:16.917Z,23168
2017-06-26T08:55:32.319Z,27904
2017-06-26T08:56:46.496Z,25632
2017-06-26T08:58:02.207Z,17184
2017-06-26T08:59:17.650Z,18432
2017-06-26T09:00:31.779Z,22432
2017-06-26T09:01:47.238Z,28416
2017-06-26T09:03:02.964Z,23488
2017-06-26T09:04:18.391Z,20576
2017-06-26T09:05:33.867Z,24064
2017-06-26T09:06:48.054Z,55040
2017-06-26T09:08:02.669Z,57440
2017-06-26T09:09:16.844Z,22912
2017-06-26T09:10:32.495Z,17664
2017-06-26T09:11:46.642Z,16364
2017-06-26T09:13:02.562Z,16960
2017-06-26T09:14:18.042Z,24896
2017-06-26T09:15:33.493Z,92768
2017-06-26T09:16:49.161Z,128800
2017-06-26T09:18:05.045Z,17536
2017-06-26T09:19:33.944Z,90560
2017-06-26T09:20:49.372Z,15092
2017-06-26T09:22:04.882Z,13136
2017-06-26T09:23:20.394Z,12060
2017-06-26T09:24:34.560Z,15048
2017-06-26T09:25:48.730Z,15944
2017-06-26T09:27:04.213Z,22080
2017-06-26T09:28:19.506Z,21696
2017-06-26T09:29:34.967Z,103808
2017-06-26T09:30:50.613Z,95904
2017-06-26T09:32:06.264Z,112800
2017-06-26T09:33:21.963Z,121120
2017-06-26T09:34:37.399Z,125152
2017-06-26T09:35:52.927Z,22208
2017-06-26T09:37:08.358Z,26400
2017-06-26T09:38:24.257Z,25344
2017-06-26T09:39:39.770Z,67744
2017-06-26T09:40:55.294Z,20992
2017-06-26T09:42:10.771Z,62240
2017-06-26T09:43:26.539Z,19872
2017-06-26T09:44:42.015Z,22944
2017-06-26T09:45:57.472Z,102112
2017-06-26T09:47:12.916Z,102752
2017-06-26T09:48:28.647Z,38304
2017-06-26T09:49:44.082Z,46976
2017-06-26T09:50:58.255Z,18688
2017-06-26T09:52:13.718Z,22592
2017-06-26T09:53:29.423Z,17760
2017-06-26T09:54:45.129Z,14496
2017-06-26T09:56:00.597Z,16896
2017-06-26T09:57:16.079Z,19584
2017-06-26T09:58:31.731Z,18144
2017-06-26T09:59:47.216Z,23936
2017-06-26T10:01:02.748Z,40128
2017-06-26T10:02:18.283Z,99872
2017-06-26T10:03:33.962Z,26656
2017-06-26T10:04:49.444Z,19552
2017-06-26T10:06:03.677Z,17664
2017-06-26T10:07:19.104Z,31360
2017-06-26T10:08:34.832Z,52224
2017-06-26T10:09:50.357Z,114528
2017-06-26T10:11:05.807Z,63552
2017-06-26T10:12:21.241Z,46080
2017-06-26T10:13:36.947Z,137696
2017-06-26T10:14:52.669Z,66784
2017-06-26T10:16:08.163Z,29600
2017-06-26T10:17:22.113Z,40352
2017-06-26T10:18:37.857Z,43488
2017-06-26T10:19:52.210Z,142336
2017-06-26T10:21:07.708Z,42752
2017-06-26T10:22:23.186Z,82912
2017-06-26T10:23:38.891Z,161728
2017-06-26T10:24:54.382Z,28352
2017-06-26T10:26:09.826Z,89632
2017-06-26T10:27:25.508Z,24736
2017-06-26T10:28:41.207Z,31296
2017-06-26T10:29:56.781Z,26528
2017-06-26T10:31:12.215Z,37856
2017-06-26T10:32:27.683Z,155360
2017-06-26T10:33:43.377Z,135648
2017-06-26T10:34:57.582Z,80480
2017-06-26T10:36:11.973Z,29120
2017-06-26T10:37:27.500Z,26208
2017-06-26T10:38:43.164Z,22336
2017-06-26T10:39:57.344Z,69216
2017-06-26T10:41:12.800Z,124256
2017-06-26T10:42:26.957Z,147136
2017-06-26T10:43:56.135Z,29184
2017-06-26T10:45:11.582Z,32672
2017-06-26T10:46:27.031Z,25952
2017-06-26T10:47:42.522Z,20544
2017-06-26T10:48:58.282Z,20768
2017-06-26T10:50:12.474Z,33152
2017-06-26T10:51:27.991Z,18368
2017-06-26T10:52:43.447Z,14612
2017-06-26T10:53:59.184Z,16640
2017-06-26T10:55:14.643Z,18272
2017-06-26T10:56:30.102Z,21376
2017-06-26T10:57:45.710Z,120672
2017-06-26T10:59:01.391Z,47168
2017-06-26T11:00:16.894Z,19264
2017-06-26T11:01:32.350Z,18560
2017-06-26T11:02:47.906Z,13880
2017-06-26T11:04:03.592Z,16704
2017-06-26T11:05:19.236Z,66496
2017-06-26T11:06:34.679Z,21728
2017-06-26T11:07:48.829Z,20288
2017-06-26T11:09:04.559Z,25440
2017-06-26T11:10:19.975Z,27968
2017-06-26T11:11:35.416Z,21184
2017-06-26T11:12:50.887Z,33888
2017-06-26T11:14:06.707Z,45824
2017-06-26T11:15:22.138Z,150336
2017-06-26T11:16:37.719Z,122400
2017-06-26T11:17:53.204Z,100704
2017-06-26T11:19:09.130Z,187040
2017-06-26T11:20:24.601Z,155808
2017-06-26T11:21:40.101Z,109568
2017-06-26T11:22:55.551Z,20320
2017-06-26T11:24:11.556Z,20256
2017-06-26T11:25:26.979Z,29024
2017-06-26T11:26:42.453Z,56064
2017-06-26T11:27:57.925Z,84512
2017-06-26T11:29:13.660Z,24576
2017-06-26T11:30:29.115Z,20928
2017-06-26T11:31:44.916Z,19552
2017-06-26T11:33:00.441Z,94048
2017-06-26T11:34:16.152Z,123200
2017-06-26T11:35:31.698Z,151936
2017-06-26T11:36:47.150Z,61440
2017-06-26T11:38:02.593Z,27360
2017-06-26T11:39:18.282Z,152352
2017-06-26T11:40:33.755Z,76672
2017-06-26T11:41:49.380Z,22944
2017-06-26T11:43:03.508Z,20544
2017-06-26T11:44:19.181Z,24512
2017-06-26T11:45:35.093Z,53248
2017-06-26T11:46:50.193Z,52256
2017-06-26T11:48:05.691Z,107744
2017-06-26T11:49:21.382Z,21312
2017-06-26T11:50:36.795Z,136128
2017-06-26T11:51:52.263Z,113824
2017-06-26T11:53:07.782Z,38784
2017-06-26T11:54:23.673Z,112736
2017-06-26T11:55:39.115Z,28832
2017-06-26T11:56:54.505Z,137504
2017-06-26T11:58:10.069Z,82784
2017-06-26T11:59:25.978Z,109216
2017-06-26T12:00:41.451Z,94208
2017-06-26T12:01:57.090Z,89248
2017-06-26T12:03:12.537Z,94752
2017-06-26T12:04:28.275Z,102688
2017-06-26T12:05:43.958Z,109440
2017-06-26T12:06:59.464Z,109632
2017-06-26T12:08:15.716Z,108672
2017-06-26T12:09:31.638Z,111712
2017-06-26T12:10:47.359Z,103584
2017-06-26T12:12:03.230Z,96640
2017-06-26T12:13:18.842Z,96864
2017-06-26T12:14:34.578Z,109856
2017-06-26T12:15:50.135Z,97760
2017-06-26T12:17:05.608Z,136320
2017-06-26T12:18:21.911Z,133472
2017-06-26T12:19:37.606Z,97440
2017-06-26T12:20:53.058Z,49536
2017-06-26T12:22:08.195Z,90848
2017-06-26T12:23:23.635Z,41600
2017-06-26T12:24:46.566Z,81216
2017-06-26T12:26:02.065Z,30400
2017-06-26T12:27:17.605Z,16480
2017-06-26T12:28:33.131Z,12528
2017-06-26T12:29:48.784Z,11716
2017-06-26T12:31:04.332Z,12516
2017-06-26T12:32:19.898Z,14588
2017-06-26T12:33:35.353Z,17760
2017-06-26T12:34:50.827Z,32320
2017-06-26T12:36:06.263Z,19808
2017-06-26T12:37:21.736Z,16096
2017-06-26T12:38:37.212Z,13208
2017-06-26T12:39:51.480Z,12408
2017-06-26T12:41:06.970Z,14876
2017-06-26T12:42:22.466Z,11176
2017-06-26T12:43:37.956Z,9008
2017-06-26T12:44:53.839Z,6992
2017-06-26T12:46:09.244Z,5156
2017-06-26T12:47:23.415Z,4036
2017-06-26T12:48:39.034Z,3520
2017-06-26T12:49:54.755Z,3240
2017-06-26T12:51:09.787Z,2892
2017-06-26T12:52:25.256Z,2552
2017-06-26T12:53:40.710Z,2216
2017-06-26T12:54:56.432Z,1824
2017-06-26T12:56:11.913Z,1596
2017-06-26T12:57:27.470Z,1556
2017-06-26T12:58:42.960Z,1632
2017-06-26T12:59:57.354Z,1676
2017-06-26T13:01:12.861Z,1700
2017-06-26T13:02:28.316Z,1632
2017-06-26T13:03:43.733Z,1640
2017-06-26T13:04:59.491Z,1700
2017-06-26T13:06:14.934Z,1748
2017-06-26T13:07:30.353Z,1940
2017-06-26T13:08:46.029Z,2200
2017-06-26T13:10:01.759Z,2496
2017-06-26T13:11:17.176Z,2880
2017-06-26T13:12:31.383Z,3344
2017-06-26T13:13:46.974Z,3504
2017-06-26T13:15:02.685Z,3972
2017-06-26T13:16:18.256Z,4176
2017-06-26T13:17:33.707Z,4420
2017-06-26T13:18:49.290Z,4964
2017-06-26T13:20:05.109Z,5472
2017-06-26T13:21:20.569Z,6628
2017-06-26T13:22:34.674Z,9200
2017-06-26T13:23:50.231Z,10108
2017-06-26T13:25:05.923Z,9260
2017-06-26T13:26:21.386Z,7624
2017-06-26T13:27:36.934Z,8228
2017-06-26T13:28:52.390Z,11664
2017-06-26T13:30:08.180Z,17120
2017-06-26T13:31:22.344Z,15568
2017-06-26T13:32:36.508Z,14372
2017-06-26T13:33:51.955Z,13416
2017-06-26T13:35:07.719Z,12788
2017-06-26T13:36:22.816Z,11540
2017-06-26T13:37:38.282Z,10192
2017-06-26T13:38:53.695Z,9644
2017-06-26T13:40:09.368Z,11500
2017-06-26T13:41:24.891Z,14648
2017-06-26T13:42:40.350Z,14484
2017-06-26T13:43:55.932Z,10480
2017-06-26T13:45:09.981Z,8256
2017-06-26T13:46:25.445Z,6880
2017-06-26T13:47:40.903Z,6012
2017-06-26T13:48:55.038Z,5760
2017-06-26T13:50:10.729Z,6936
2017-06-26T13:51:26.243Z,9788
2017-06-26T13:52:41.898Z,11112
2017-06-26T13:53:57.335Z,10080
2017-06-26T13:55:13.003Z,8668
2017-06-26T13:56:28.500Z,8616
2017-06-26T13:57:43.958Z,11524
2017-06-26T13:58:59.431Z,43200
2017-06-26T14:00:15.153Z,16544
2017-06-26T14:01:30.572Z,11920
2017-06-26T14:02:45.999Z,11432
2017-06-26T14:04:01.449Z,10988
2017-06-26T14:05:17.118Z,15204
2017-06-26T14:06:32.614Z,14048
2017-06-26T14:07:48.087Z,11208
2017-06-26T14:09:03.513Z,10636
2017-06-26T14:10:19.248Z,12100
2017-06-26T14:11:34.362Z,9524
2017-06-26T14:12:49.434Z,7716
2017-06-26T14:14:04.913Z,6560
2017-06-26T14:15:20.608Z,5776
2017-06-26T14:16:36.054Z,6980
2017-06-26T14:17:51.692Z,8184
2017-06-26T14:19:05.820Z,8092
2017-06-26T14:20:21.550Z,5984
2017-06-26T14:21:36.970Z,4800
2017-06-26T14:22:52.427Z,5000
2017-06-26T14:24:07.877Z,5568
2017-06-26T14:25:23.573Z,5716
2017-06-26T14:26:39.073Z,6232
2017-06-26T14:27:54.585Z,7152
2017-06-26T14:29:10.057Z,8524
2017-06-26T14:30:24.490Z,9056
2017-06-26T14:31:39.918Z,7980
2017-06-26T14:32:55.468Z,6448
2017-06-26T14:34:09.604Z,4828
2017-06-26T14:35:25.250Z,5044
2017-06-26T14:36:40.943Z,5848
2017-06-26T14:37:56.182Z,5904
2017-06-26T14:39:11.634Z,7036
2017-06-26T14:40:27.356Z,10332
2017-06-26T14:41:42.886Z,14296
2017-06-26T14:42:58.363Z,12708
2017-06-26T14:44:13.794Z,10848
2017-06-26T14:45:28.257Z,9908
2017-06-26T14:46:43.900Z,10084
2017-06-26T14:47:59.332Z,11088
2017-06-26T14:49:14.785Z,13508
2017-06-26T14:50:30.584Z,13732
2017-06-26T14:51:46.076Z,12044
2017-06-26T14:53:01.536Z,12276
2017-06-26T14:54:17.422Z,22176
2017-06-26T14:55:33.427Z,17984
2017-06-26T14:56:48.941Z,20800
2017-06-26T14:58:04.417Z,22272
2017-06-26T14:59:19.768Z,47680
2017-06-26T15:00:34.183Z,55360
2017-06-26T15:01:48.192Z,70848
2017-06-26T15:03:02.356Z,31456
2017-06-26T15:04:17.796Z,28480
2017-06-26T15:05:33.291Z,25568
2017-06-26T15:06:49.200Z,22816
2017-06-26T15:08:04.577Z,19840
2017-06-26T15:09:18.736Z,17248
2017-06-26T15:10:34.212Z,16276
2017-06-26T15:11:49.876Z,15744
2017-06-26T15:13:05.498Z,15564
2017-06-26T15:14:20.991Z,15108
2017-06-26T15:15:36.468Z,14024
2017-06-26T15:16:52.181Z,13264
2017-06-26T15:18:07.813Z,13068
2017-06-26T15:19:23.274Z,13012
2017-06-26T15:20:38.764Z,12956
2017-06-26T15:21:54.422Z,13344
2017-06-26T15:23:08.484Z,13952
2017-06-26T15:24:22.815Z,14188
2017-06-26T15:25:38.311Z,14548
2017-06-26T15:26:53.968Z,14880
2017-06-26T15:28:08.102Z,16380
2017-06-26T15:29:23.644Z,13304
2017-06-26T15:30:39.112Z,11616
2017-06-26T15:31:54.757Z,12288
2017-06-26T15:33:10.395Z,10932
2017-06-26T15:34:25.888Z,8040
2017-06-26T15:35:41.354Z,6984
2017-06-26T15:36:57.229Z,8524
2017-06-26T15:38:43.546Z,9392
2017-06-26T15:39:59.046Z,7956
2017-06-26T15:41:14.486Z,6852
2017-06-26T15:42:30.190Z,7848
2017-06-26T15:43:45.608Z,7972
2017-06-26T15:45:01.136Z,7860
2017-06-26T15:46:16.605Z,9820
2017-06-26T15:47:32.348Z,14580
2017-06-26T15:48:47.873Z,18112
2017-06-26T15:50:03.596Z,19008
2017-06-26T15:51:19.089Z,15812
2017-06-26T15:52:34.795Z,12300
2017-06-26T15:53:50.444Z,11212
2017-06-26T15:55:05.891Z,11592
2017-06-26T15:56:20.069Z,10324
2017-06-26T15:57:35.892Z,11484
2017-06-26T15:58:51.282Z,10260
2017-06-26T16:00:06.368Z,11004
2017-06-26T16:01:20.496Z,9524
2017-06-26T16:02:36.208Z,8736
2017-06-26T16:03:51.711Z,8524
2017-06-26T16:05:05.806Z,8484
2017-06-26T16:06:21.258Z,8192
2017-06-26T16:07:37.020Z,9484
2017-06-26T16:08:52.462Z,9756
2017-06-26T16:10:07.884Z,9488
2017-06-26T16:11:22.064Z,8636
2017-06-26T16:12:37.871Z,8200
2017-06-26T16:13:53.380Z,8000
2017-06-26T16:15:07.548Z,8192
2017-06-26T16:16:23.052Z,8412
2017-06-26T16:17:38.748Z,7744
2017-06-26T16:18:54.189Z,8088
2017-06-26T16:20:09.747Z,8004
2017-06-26T16:21:25.177Z,7472
2017-06-26T16:22:41.086Z,7056
2017-06-26T16:23:56.559Z,7316
2017-06-26T16:25:12.031Z,7788
2017-06-26T16:26:27.692Z,7832
2017-06-26T16:27:43.435Z,7572
2017-06-26T16:28:58.921Z,7028
2017-06-26T16:30:14.405Z,6856
2017-06-26T16:31:29.854Z,7024
2017-06-26T16:32:45.779Z,7156
2017-06-26T16:34:01.200Z,7092
2017-06-26T16:35:16.689Z,7152
2017-06-26T16:36:32.174Z,5960
2017-06-26T16:37:48.017Z,5324
2017-06-26T16:39:03.541Z,5680
2017-06-26T16:40:19.157Z,5968
2017-06-26T16:41:34.625Z,6852
2017-06-26T16:42:50.566Z,8124
2017-06-26T16:44:06.144Z,8636
2017-06-26T16:45:21.602Z,8536
2017-06-26T16:46:36.650Z,7840
2017-06-26T16:47:50.826Z,7816
2017-06-26T16:49:06.401Z,8128